Time;durP1;ratioP1;P1;durP2;ratioP2;P2;SDS_P1;SDS_P2;PMS_P1;PMS_P2;Temp;Humidity;BMP_temperature;BMP_pressure;BME280_temperature;BME280_humidity;BME280_pressure;Samples;Min_cycle;Max_cycle;Signal;HPM_P1;HPM_P2
2022/04/15 00:00:05;;;;;;;9.73;7.90;;;9.80;99.90;;;;;;5121233;28;20583;-46
2022/04/15 00:02:31;;;;;;;10.63;7.80;;;9.80;99.90;;;;;;5102372;28;20249;-47
2022/04/15 00:04:57;;;;;;;8.43;7.33;;;9.70;99.90;;;;;;5121135;28;20200;-45
2022/04/15 00:07:23;;;;;;;8.77;7.40;;;9.70;99.90;;;;;;5120503;28;20273;-48
2022/04/15 00:09:48;;;;;;;9.70;7.47;;;9.60;99.90;;;;;;5113712;28;20211;-43
2022/04/15 00:12:18;;;;;;;10.10;7.37;;;9.60;99.90;;;;;;5114121;28;20171;-43
2022/04/15 00:14:46;;;;;;;6.80;5.40;;;9.60;99.90;;;;;;5113747;28;20244;-44
2022/04/15 00:17:12;;;;;;;6.07;5.20;;;9.50;99.90;;;;;;5113774;28;20728;-42
2022/04/15 00:19:38;;;;;;;7.27;5.87;;;9.50;99.90;;;;;;5113742;28;20185;-46
2022/04/15 00:22:04;;;;;;;6.73;6.03;;;9.40;99.90;;;;;;5113687;28;20173;-43
2022/04/15 00:24:29;;;;;;;7.90;6.77;;;9.30;99.90;;;;;;5113707;28;20177;-40
2022/04/15 00:26:55;;;;;;;13.33;7.10;;;9.20;99.90;;;;;;5114815;28;20215;-40
2022/04/15 00:29:21;;;;;;;7.27;6.43;;;9.20;99.90;;;;;;5095636;28;20176;-41
2022/04/15 00:31:47;;;;;;;9.00;6.33;;;9.20;99.90;;;;;;5095803;28;20177;-45
2022/04/15 00:34:13;;;;;;;6.93;6.13;;;9.10;99.90;;;;;;5114494;28;20251;-45
2022/04/15 00:36:38;;;;;;;8.93;6.67;;;9.00;99.90;;;;;;5113429;28;20201;-43
2022/04/15 00:39:05;;;;;;;8.47;7.10;;;9.00;99.90;;;;;;5113651;28;20177;-43
2022/04/15 00:41:31;;;;;;;8.77;7.33;;;8.90;99.90;;;;;;5113476;28;20185;-44
2022/04/15 00:43:58;;;;;;;9.20;7.50;;;8.90;99.90;;;;;;5114069;28;20182;-44
2022/04/15 00:46:23;;;;;;;11.80;7.27;;;8.90;99.90;;;;;;5113395;28;20207;-43
2022/04/15 00:48:49;;;;;;;10.97;7.97;;;8.80;99.90;;;;;;5115947;28;20219;-43
2022/04/15 00:51:15;;;;;;;8.17;6.80;;;8.80;99.90;;;;;;5117657;28;20249;-42
2022/04/15 00:53:44;;;;;;;8.80;7.27;;;8.70;99.90;;;;;;5117488;28;20788;-44
2022/04/15 00:56:11;;;;;;;9.87;6.60;;;8.70;99.90;;;;;;5117574;28;20204;-43
2022/04/15 00:58:39;;;;;;;10.37;6.73;;;8.60;99.90;;;;;;5117607;28;20632;-45
2022/04/15 01:01:06;;;;;;;10.97;6.97;;;8.60;99.90;;;;;;5099062;28;20184;-43
2022/04/15 01:03:34;;;;;;;9.83;7.40;;;8.60;99.90;;;;;;5099240;28;20614;-43
2022/04/15 01:06:01;;;;;;;8.77;7.60;;;8.50;99.90;;;;;;5098965;28;20218;-42
2022/04/15 01:08:28;;;;;;;10.83;8.03;;;8.50;99.90;;;;;;5117301;28;20166;-44
2022/04/15 01:10:58;;;;;;;16.07;8.13;;;8.50;99.90;;;;;;5117374;28;20175;-42
2022/04/15 01:13:26;;;;;;;14.10;8.40;;;8.40;99.90;;;;;;5117053;28;20178;-43
2022/04/15 01:15:54;;;;;;;10.87;8.60;;;8.40;99.90;;;;;;5116939;28;20688;-42
2022/04/15 01:18:20;;;;;;;10.07;7.97;;;8.40;99.90;;;;;;5117316;28;20184;-42
2022/04/15 01:20:51;;;;;;;12.07;8.03;;;8.30;99.90;;;;;;5117339;28;20179;-42
2022/04/15 01:23:17;;;;;;;8.93;7.67;;;8.30;99.90;;;;;;5117459;28;20570;-43
2022/04/15 01:25:42;;;;;;;8.70;7.33;;;8.30;99.90;;;;;;5117064;28;20207;-44
2022/04/15 01:28:09;;;;;;;10.23;7.73;;;8.30;99.90;;;;;;5117180;28;20172;-44
2022/04/15 01:30:35;;;;;;;12.70;8.37;;;8.20;99.90;;;;;;5116910;28;20174;-44
2022/04/15 01:33:03;;;;;;;11.57;8.93;;;8.20;99.90;;;;;;5116564;28;20177;-45
2022/04/15 01:35:29;;;;;;;10.73;8.03;;;8.10;99.90;;;;;;5116729;28;20182;-44
2022/04/15 01:37:57;;;;;;;8.77;7.30;;;8.10;99.90;;;;;;5116460;28;20175;-44
2022/04/15 01:40:23;;;;;;;9.43;6.97;;;8.10;99.90;;;;;;5116456;28;20167;-44
2022/04/15 01:42:49;;;;;;;15.53;7.53;;;8.00;99.90;;;;;;5116693;28;20166;-44
2022/04/15 01:45:15;;;;;;;11.83;7.50;;;8.00;99.90;;;;;;5116283;28;20180;-42
2022/04/15 01:47:41;;;;;;;8.93;6.70;;;7.90;99.90;;;;;;5116272;28;20202;-45
2022/04/15 01:50:08;;;;;;;7.73;6.57;;;7.90;99.90;;;;;;5116595;28;20178;-44
2022/04/15 01:52:34;;;;;;;8.67;6.97;;;7.90;99.90;;;;;;5116203;28;20172;-43
2022/04/15 01:55:00;;;;;;;10.10;7.27;;;7.80;99.90;;;;;;5116165;28;20255;-43
2022/04/15 01:57:25;;;;;;;12.10;8.20;;;7.80;99.90;;;;;;5116182;28;20198;-45
2022/04/15 01:59:51;;;;;;;13.77;7.93;;;7.70;99.90;;;;;;5115507;28;20253;-45
2022/04/15 02:02:17;;;;;;;8.80;7.53;;;7.70;99.90;;;;;;5116086;28;20231;-44
2022/04/15 02:04:42;;;;;;;11.43;8.20;;;7.70;99.90;;;;;;5116655;28;20225;-43
2022/04/15 02:07:08;;;;;;;9.10;7.23;;;7.60;99.90;;;;;;5115878;28;20206;-44
2022/04/15 02:09:34;;;;;;;9.63;7.47;;;7.60;99.90;;;;;;5115970;28;20182;-43
2022/04/15 02:12:00;;;;;;;8.83;7.37;;;7.60;99.90;;;;;;5115894;28;20197;-42
2022/04/15 02:14:25;;;;;;;9.37;7.30;;;7.50;99.90;;;;;;5115840;28;20249;-42
2022/04/15 02:16:53;;;;;;;8.77;6.67;;;7.50;99.90;;;;;;5115924;28;20278;-45
2022/04/15 02:19:19;;;;;;;10.53;8.03;;;7.40;99.90;;;;;;5097495;28;20201;-42
2022/04/15 02:21:45;;;;;;;11.67;8.63;;;7.40;99.90;;;;;;5115687;28;20171;-41
2022/04/15 02:24:11;;;;;;;9.57;7.33;;;7.30;99.90;;;;;;5115904;28;20189;-43
2022/04/15 02:26:37;;;;;;;11.03;7.73;;;7.30;99.90;;;;;;5097162;28;20217;-42
2022/04/15 02:29:02;;;;;;;11.23;7.57;;;7.30;99.90;;;;;;5115573;28;20183;-43
2022/04/15 02:31:28;;;;;;;9.23;7.50;;;7.30;99.90;;;;;;5115703;28;20648;-45
2022/04/15 02:33:54;;;;;;;9.70;7.40;;;7.30;99.90;;;;;;5115557;28;20223;-44
2022/04/15 02:36:19;;;;;;;11.43;8.83;;;7.20;99.90;;;;;;5115587;28;20202;-45
2022/04/15 02:38:45;;;;;;;14.50;10.00;;;7.20;99.90;;;;;;5115381;28;20175;-44
2022/04/15 02:41:11;;;;;;;12.70;9.90;;;7.20;99.90;;;;;;5115583;28;20640;-45
2022/04/15 02:43:38;;;;;;;14.93;9.93;;;7.20;99.90;;;;;;5115505;28;20189;-45
2022/04/15 02:46:06;;;;;;;12.43;10.17;;;7.20;99.90;;;;;;5115067;28;20210;-46
2022/04/15 02:48:33;;;;;;;13.23;8.97;;;7.20;99.90;;;;;;5115769;28;20171;-43
2022/04/15 02:50:59;;;;;;;11.57;9.07;;;7.20;99.90;;;;;;5115356;28;20185;-45
2022/04/15 02:53:25;;;;;;;16.33;9.60;;;7.10;99.90;;;;;;5115116;28;20201;-43
2022/04/15 02:55:52;;;;;;;10.90;8.80;;;7.10;99.90;;;;;;5115272;28;20351;-43
2022/04/15 02:58:18;;;;;;;9.57;8.17;;;7.10;99.90;;;;;;5096863;28;20178;-43
2022/04/15 03:00:44;;;;;;;10.30;8.13;;;7.10;99.90;;;;;;5115290;28;20185;-44
2022/04/15 03:03:11;;;;;;;10.53;7.47;;;7.10;99.90;;;;;;5115174;28;20178;-43
2022/04/15 03:05:37;;;;;;;10.30;8.40;;;7.00;99.90;;;;;;5114920;28;20575;-43
2022/04/15 03:08:03;;;;;;;12.90;7.63;;;6.90;99.90;;;;;;5115059;28;20166;-44
2022/04/15 03:10:28;;;;;;;9.77;8.53;;;6.90;99.90;;;;;;5114972;28;20177;-44
2022/04/15 03:12:54;;;;;;;8.67;6.60;;;6.90;99.90;;;;;;5113793;28;20174;-44
2022/04/15 03:15:19;;;;;;;9.07;7.23;;;6.90;99.90;;;;;;5114652;28;20178;-46
2022/04/15 03:17:45;;;;;;;9.83;7.37;;;6.80;99.90;;;;;;5114492;28;20594;-42
2022/04/15 03:20:11;;;;;;;8.60;6.60;;;6.80;99.90;;;;;;5096676;28;20177;-42
2022/04/15 03:22:38;;;;;;;7.73;6.10;;;6.70;99.90;;;;;;5114510;28;20167;-43
2022/04/15 03:25:06;;;;;;;9.00;6.77;;;6.70;99.90;;;;;;5114480;28;20166;-41
2022/04/15 03:27:32;;;;;;;9.27;7.00;;;6.60;99.90;;;;;;5096245;28;20292;-41
2022/04/15 03:29:58;;;;;;;9.93;7.00;;;6.60;99.90;;;;;;5114390;28;20651;-43
2022/04/15 03:32:24;;;;;;;10.37;7.43;;;6.60;99.90;;;;;;5114289;28;20185;-43
2022/04/15 03:34:55;;;;;;;15.13;7.97;;;6.50;99.90;;;;;;5114536;28;20174;-44
2022/04/15 03:37:21;;;;;;;11.93;8.93;;;6.50;99.90;;;;;;5114248;28;20694;-43
2022/04/15 03:39:46;;;;;;;12.93;8.50;;;6.40;99.90;;;;;;5114428;28;20178;-41
2022/04/15 03:42:12;;;;;;;10.20;7.77;;;6.50;99.90;;;;;;5114122;28;20190;-45
2022/04/15 03:44:37;;;;;;;11.77;9.53;;;6.40;99.90;;;;;;5095895;28;20185;-44
2022/04/15 03:47:04;;;;;;;11.67;9.37;;;6.40;99.90;;;;;;5114147;28;20213;-44
2022/04/15 03:49:30;;;;;;;15.03;10.47;;;6.40;99.90;;;;;;5114082;28;20178;-42
2022/04/15 03:51:55;;;;;;;14.43;9.93;;;6.40;99.90;;;;;;5114554;28;20185;-44
2022/04/15 03:54:21;;;;;;;17.50;12.57;;;6.40;99.90;;;;;;5114039;28;20197;-41
2022/04/15 03:56:46;;;;;;;17.23;12.20;;;6.40;99.90;;;;;;5114037;28;20206;-43
2022/04/15 03:59:13;;;;;;;21.00;14.50;;;6.50;99.90;;;;;;5113914;28;20707;-41
2022/04/15 04:01:39;;;;;;;21.07;14.90;;;6.60;99.90;;;;;;5114072;28;20182;-43
2022/04/15 04:04:05;;;;;;;24.07;14.93;;;6.60;99.90;;;;;;5113876;28;20187;-43
2022/04/15 04:06:30;;;;;;;18.30;13.63;;;6.60;99.90;;;;;;5113669;28;20213;-43
2022/04/15 04:08:56;;;;;;;17.60;13.60;;;6.60;99.90;;;;;;5113796;28;20181;-43
2022/04/15 04:11:22;;;;;;;18.87;13.20;;;6.70;99.90;;;;;;5113789;28;20217;-43
2022/04/15 04:13:48;;;;;;;17.23;12.83;;;6.70;99.90;;;;;;5113725;28;20173;-42
2022/04/15 04:16:13;;;;;;;17.87;12.13;;;6.60;99.90;;;;;;5113625;28;20198;-43
2022/04/15 04:18:41;;;;;;;17.97;13.53;;;6.60;99.90;;;;;;5113685;28;20261;-43
2022/04/15 04:21:07;;;;;;;19.53;12.57;;;6.60;99.90;;;;;;5113956;28;20181;-45
2022/04/15 04:23:34;;;;;;;17.47;12.33;;;6.60;99.90;;;;;;5115980;28;20180;-44
2022/04/15 04:26:00;;;;;;;17.47;12.47;;;6.50;99.90;;;;;;5117745;28;20217;-44
2022/04/15 04:28:25;;;;;;;21.57;14.23;;;6.50;99.90;;;;;;5117918;28;20181;-43
2022/04/15 04:30:52;;;;;;;17.77;12.77;;;6.50;99.90;;;;;;5099648;28;20226;-43
2022/04/15 04:33:18;;;;;;;17.77;11.60;;;6.50;99.90;;;;;;5118130;28;20189;-43
2022/04/15 04:35:44;;;;;;;17.53;12.07;;;6.50;99.90;;;;;;5118228;28;20182;-44
2022/04/15 04:38:10;;;;;;;15.67;10.97;;;6.40;99.90;;;;;;5117756;28;20548;-44
2022/04/15 04:40:36;;;;;;;14.97;10.90;;;6.40;99.90;;;;;;5099495;28;20193;-42
2022/04/15 04:43:03;;;;;;;16.10;11.07;;;6.30;99.90;;;;;;5118274;28;20625;-43
2022/04/15 04:45:29;;;;;;;13.73;10.73;;;6.30;99.90;;;;;;5117809;28;20273;-43
2022/04/15 04:47:56;;;;;;;15.57;10.30;;;6.30;99.90;;;;;;5117560;28;20178;-44
2022/04/15 04:50:22;;;;;;;14.83;10.17;;;6.20;99.90;;;;;;5117578;28;20688;-45
2022/04/15 04:52:48;;;;;;;15.50;11.10;;;6.20;99.90;;;;;;5118057;28;20185;-42
2022/04/15 04:55:15;;;;;;;13.43;10.13;;;6.20;99.90;;;;;;5118137;28;20265;-44
2022/04/15 04:57:42;;;;;;;17.53;12.53;;;6.10;99.90;;;;;;5118355;28;20205;-44
2022/04/15 05:00:09;;;;;;;15.27;12.03;;;6.10;99.90;;;;;;5117953;28;20223;-41
2022/04/15 05:02:35;;;;;;;17.10;12.50;;;6.20;99.90;;;;;;5099251;28;20178;-44
2022/04/15 05:05:01;;;;;;;18.60;12.27;;;6.20;99.90;;;;;;5117582;28;20181;-42
2022/04/15 05:07:26;;;;;;;17.47;13.00;;;6.30;99.90;;;;;;5117142;28;20221;-42
2022/04/15 05:09:53;;;;;;;17.17;12.57;;;6.30;99.90;;;;;;5117291;28;20182;-41
2022/04/15 05:12:18;;;;;;;15.57;11.93;;;6.30;99.90;;;;;;5117343;28;20186;-43
2022/04/15 05:14:44;;;;;;;14.17;11.03;;;6.40;99.90;;;;;;5117775;28;20177;-42
2022/04/15 05:17:09;;;;;;;15.40;11.23;;;6.40;99.90;;;;;;5117239;28;20202;-42
2022/04/15 05:19:35;;;;;;;14.47;11.40;;;6.30;99.90;;;;;;5117264;28;20178;-43
2022/04/15 05:22:01;;;;;;;15.83;11.70;;;6.40;99.90;;;;;;5116891;28;20177;-40
2022/04/15 05:24:26;;;;;;;14.10;11.27;;;6.40;99.90;;;;;;5117597;28;20235;-47
2022/04/15 05:26:52;;;;;;;13.80;10.60;;;6.40;99.90;;;;;;5104963;28;20221;-45
2022/04/15 05:29:17;;;;;;;14.43;11.20;;;6.40;99.90;;;;;;5123837;28;20534;-46
2022/04/15 05:31:43;;;;;;;14.07;10.57;;;6.50;99.90;;;;;;5104427;28;20176;-45
2022/04/15 05:34:09;;;;;;;15.23;10.97;;;6.50;99.90;;;;;;5122944;28;20184;-45
2022/04/15 05:36:35;;;;;;;14.20;10.13;;;6.50;99.90;;;;;;5123460;28;20200;-44
2022/04/15 05:39:00;;;;;;;15.47;11.33;;;6.60;99.90;;;;;;5123580;28;20177;-46
2022/04/15 05:41:26;;;;;;;13.70;10.87;;;6.60;99.90;;;;;;5123213;28;20188;-44
2022/04/15 05:43:52;;;;;;;14.57;11.70;;;6.70;99.90;;;;;;5105243;28;20273;-44
2022/04/15 05:46:19;;;;;;;15.83;12.43;;;6.80;99.90;;;;;;5123391;28;20298;-46
2022/04/15 05:48:45;;;;;;;19.03;13.93;;;6.80;99.90;;;;;;5123260;28;20241;-45
2022/04/15 05:51:11;;;;;;;22.87;15.57;;;6.90;99.90;;;;;;5124279;28;20223;-44
2022/04/15 05:53:36;;;;;;;24.70;16.40;;;7.00;99.90;;;;;;5122653;28;20229;-44
2022/04/15 05:56:02;;;;;;;25.07;16.90;;;7.10;99.90;;;;;;5122841;28;20216;-43
2022/04/15 05:58:28;;;;;;;25.37;17.23;;;7.30;99.90;;;;;;5123315;28;20188;-45
2022/04/15 06:00:55;;;;;;;30.67;19.17;;;7.50;99.90;;;;;;5122842;28;20193;-44
2022/04/15 06:03:21;;;;;;;25.13;17.77;;;7.60;99.90;;;;;;5123121;28;20310;-44
2022/04/15 06:05:47;;;;;;;27.63;18.90;;;7.80;99.90;;;;;;5123469;28;20196;-45
2022/04/15 06:08:14;;;;;;;28.60;19.03;;;7.90;99.90;;;;;;5123945;28;20175;-46
2022/04/15 06:10:40;;;;;;;31.50;19.70;;;8.00;99.90;;;;;;5123288;28;20180;-43
2022/04/15 06:13:19;;;;;;;33.67;20.23;;;8.10;99.90;;;;;;5123065;28;20196;-46
2022/04/15 06:15:52;;;;;;;32.63;19.50;;;8.20;99.90;;;;;;5123077;28;20161;-44
2022/04/15 06:18:20;;;;;;;39.87;24.47;;;8.40;99.90;;;;;;5123476;28;20190;-44
2022/04/15 06:20:46;;;;;;;37.03;23.07;;;8.40;99.90;;;;;;5123692;28;20185;-45
2022/04/15 06:23:12;;;;;;;38.80;22.80;;;8.40;99.90;;;;;;5124262;28;20185;-44
2022/04/15 06:25:38;;;;;;;34.50;21.17;;;8.40;99.90;;;;;;5124784;28;20654;-45
2022/04/15 06:28:04;;;;;;;38.13;23.27;;;8.40;99.90;;;;;;5124433;28;20191;-46
2022/04/15 06:30:30;;;;;;;35.37;21.27;;;8.40;99.90;;;;;;5125000;28;20249;-46
2022/04/15 06:32:55;;;;;;;31.60;19.90;;;8.40;99.90;;;;;;5107126;28;20199;-45
2022/04/15 06:35:21;;;;;;;29.03;17.57;;;8.40;99.90;;;;;;5125679;28;20572;-44
2022/04/15 06:37:47;;;;;;;25.10;17.57;;;8.40;99.90;;;;;;5125587;28;20209;-46
2022/04/15 06:40:12;;;;;;;33.67;20.63;;;8.40;99.90;;;;;;5125024;28;20175;-45
2022/04/15 06:42:38;;;;;;;31.47;19.30;;;8.40;99.90;;;;;;5125140;28;20219;-45
2022/04/15 06:45:04;;;;;;;24.13;15.93;;;8.40;99.90;;;;;;5126050;28;20549;-46
2022/04/15 06:47:30;;;;;;;27.73;16.37;;;8.40;99.90;;;;;;5124887;28;20319;-45
2022/04/15 06:49:56;;;;;;;27.70;17.83;;;8.40;99.90;;;;;;5090135;28;20174;-45
2022/04/15 06:52:21;;;;;;;38.87;23.13;;;8.40;99.90;;;;;;5125417;28;20174;-44
2022/04/15 06:54:47;;;;;;;36.37;19.33;;;8.50;99.90;;;;;;5124847;28;20220;-45
2022/04/15 06:57:13;;;;;;;33.97;20.97;;;8.50;99.90;;;;;;5125467;28;20205;-45
2022/04/15 06:59:39;;;;;;;43.50;24.73;;;8.50;99.90;;;;;;5123387;28;20174;-41
2022/04/15 07:02:05;;;;;;;32.20;19.77;;;8.50;99.90;;;;;;5115372;28;20260;-40
2022/04/15 07:04:32;;;;;;;49.80;27.77;;;8.50;99.90;;;;;;5115687;28;20228;-40
2022/04/15 07:06:58;;;;;;;40.60;23.07;;;8.50;99.90;;;;;;5119041;28;20292;-38
2022/04/15 07:09:24;;;;;;;44.73;29.03;;;8.50;99.90;;;;;;5121253;28;20167;-45
2022/04/15 07:11:51;;;;;;;39.17;22.67;;;8.60;99.90;;;;;;5106312;28;20186;-44
2022/04/15 07:14:17;;;;;;;44.50;26.93;;;8.60;99.90;;;;;;5098116;28;20553;-38
2022/04/15 07:16:43;;;;;;;41.17;24.23;;;8.60;99.90;;;;;;5114578;28;20206;-38
2022/04/15 07:19:09;;;;;;;44.10;26.87;;;8.70;99.90;;;;;;5096361;28;20186;-41
2022/04/15 07:21:35;;;;;;;41.63;25.20;;;8.70;99.90;;;;;;5114890;28;20639;-41
2022/04/15 07:24:01;;;;;;;34.57;21.20;;;8.70;99.90;;;;;;5096248;28;20265;-41
2022/04/15 07:26:27;;;;;;;42.50;24.70;;;8.60;99.90;;;;;;5096083;28;20214;-40
2022/04/15 07:28:52;;;;;;;36.13;23.27;;;8.70;99.90;;;;;;5114808;28;20654;-41
2022/04/15 07:31:18;;;;;;;46.87;24.40;;;8.70;99.90;;;;;;5115409;28;20170;-40
2022/04/15 07:33:46;;;;;;;40.17;23.57;;;8.60;99.90;;;;;;5096179;28;20182;-38
2022/04/15 07:38:57;;;;;;;37.37;20.53;;;8.70;99.90;;;;;;5114825;28;20576;-39
2022/04/15 07:41:23;;;;;;;29.00;15.97;;;8.60;99.90;;;;;;5096326;28;20182;-38
2022/04/15 07:43:48;;;;;;;28.20;17.83;;;8.60;99.90;;;;;;5114592;28;20213;-40
2022/04/15 07:46:15;;;;;;;25.00;17.60;;;8.50;99.90;;;;;;5114353;28;20283;-40
2022/04/15 07:48:41;;;;;;;24.30;14.80;;;8.50;99.90;;;;;;5114209;28;20166;-40
2022/04/15 07:51:07;;;;;;;20.20;12.83;;;8.50;99.90;;;;;;5114405;28;20173;-40
2022/04/15 07:53:32;;;;;;;17.50;12.20;;;8.60;99.90;;;;;;5095766;28;20182;-42
2022/04/15 07:55:58;;;;;;;22.70;13.93;;;8.60;99.90;;;;;;5114105;28;20232;-42
2022/04/15 07:58:24;;;;;;;23.57;15.00;;;8.60;99.90;;;;;;5113731;28;20646;-38
2022/04/15 08:00:49;;;;;;;20.97;14.77;;;8.60;99.90;;;;;;5114018;28;20194;-40
2022/04/15 08:03:20;;;;;;;24.03;15.70;;;8.50;99.90;;;;;;5095879;28;20210;-41
2022/04/15 08:05:46;;;;;;;23.97;14.87;;;8.50;99.90;;;;;;5095628;28;20662;-41
2022/04/15 08:08:11;;;;;;;21.80;14.43;;;8.50;99.90;;;;;;5114340;28;20178;-39
2022/04/15 08:10:37;;;;;;;20.63;13.70;;;8.50;99.90;;;;;;5095788;28;20190;-41
2022/04/15 08:13:03;;;;;;;17.53;13.10;;;8.50;99.90;;;;;;5114179;28;20692;-42
2022/04/15 08:15:29;;;;;;;19.70;13.73;;;8.50;99.90;;;;;;5114021;28;20204;-40
2022/04/15 08:17:54;;;;;;;20.33;12.27;;;8.60;99.90;;;;;;5114171;28;20182;-42
2022/04/15 08:20:20;;;;;;;19.27;13.13;;;8.60;99.90;;;;;;5114251;28;20174;-42
2022/04/15 08:22:45;;;;;;;22.17;12.43;;;8.50;99.90;;;;;;5114151;28;20647;-41
2022/04/15 08:25:11;;;;;;;19.70;12.17;;;8.60;99.90;;;;;;5095881;28;20170;-41
2022/04/15 08:27:37;;;;;;;17.40;12.30;;;8.60;99.90;;;;;;5113725;28;20210;-39
2022/04/15 08:30:03;;;;;;;18.13;13.30;;;8.70;99.90;;;;;;5113743;28;20167;-41
2022/04/15 08:32:33;;;;;;;18.10;12.53;;;8.80;99.90;;;;;;5113867;28;20174;-42
2022/04/15 08:35:06;;;;;;;16.23;12.00;;;8.80;99.90;;;;;;5095656;28;20175;-40
2022/04/15 08:37:34;;;;;;;14.77;11.30;;;8.80;99.90;;;;;;5113762;28;20312;-41
2022/04/15 08:40:01;;;;;;;17.70;11.03;;;8.80;99.90;;;;;;5095459;28;20210;-41
2022/04/15 08:42:27;;;;;;;13.23;10.37;;;8.80;99.90;;;;;;5095322;28;20178;-41
2022/04/15 08:44:53;;;;;;;12.70;10.27;;;8.80;99.90;;;;;;5113844;28;20666;-42
2022/04/15 08:47:20;;;;;;;12.90;10.07;;;8.80;99.90;;;;;;5095919;28;20584;-41
2022/04/15 08:49:47;;;;;;;12.83;10.00;;;8.80;99.90;;;;;;5114715;28;20173;-40
2022/04/15 08:52:17;;;;;;;16.37;10.77;;;8.90;99.90;;;;;;5113784;28;20263;-39
2022/04/15 08:54:44;;;;;;;12.43;9.60;;;9.00;99.90;;;;;;5113618;28;20289;-44
2022/04/15 08:57:10;;;;;;;13.70;9.90;;;9.00;99.90;;;;;;5113916;28;20209;-45
2022/04/15 08:59:36;;;;;;;14.80;11.27;;;9.00;99.90;;;;;;5113823;28;20178;-44
2022/04/15 09:02:01;;;;;;;13.37;9.70;;;9.10;99.90;;;;;;5095433;28;20345;-44
2022/04/15 09:04:27;;;;;;;15.50;11.47;;;9.10;99.90;;;;;;5113500;28;20184;-45
2022/04/15 09:07:00;;;;;;;19.03;13.07;;;9.20;99.90;;;;;;5113576;28;20211;-44
2022/04/15 09:09:32;;;;;;;21.37;14.63;;;9.30;99.90;;;;;;5115180;28;20636;-44
2022/04/15 09:11:59;;;;;;;21.37;15.33;;;9.40;99.90;;;;;;5117168;28;20182;-44
2022/04/15 09:14:26;;;;;;;25.43;18.13;;;9.60;99.90;;;;;;5117452;28;20179;-44
2022/04/15 09:16:53;;;;;;;24.30;17.47;;;9.70;99.90;;;;;;5117332;28;20199;-44
2022/04/15 09:19:19;;;;;;;24.13;17.73;;;9.80;99.90;;;;;;5117192;28;20649;-43
2022/04/15 09:21:56;;;;;;;26.63;18.70;;;10.00;99.90;;;;;;5117211;28;20184;-46
2022/04/15 09:24:30;;;;;;;31.53;23.60;;;10.20;99.90;;;;;;5117136;28;20183;-43
2022/04/15 09:26:56;;;;;;;28.70;23.70;;;10.40;99.90;;;;;;5117265;28;20203;-44
2022/04/15 09:29:24;;;;;;;31.03;24.07;;;10.50;99.90;;;;;;5098973;28;20196;-45
2022/04/15 09:31:55;;;;;;;32.50;24.67;;;10.60;99.90;;;;;;5117363;28;20194;-43
2022/04/15 09:34:21;;;;;;;29.13;24.13;;;10.70;99.90;;;;;;5117220;28;20161;-45
2022/04/15 09:36:47;;;;;;;32.33;24.27;;;10.80;99.90;;;;;;5117683;28;20245;-44
2022/04/15 09:39:17;;;;;;;32.47;25.67;;;10.80;99.90;;;;;;5099021;28;20725;-43
2022/04/15 09:41:56;;;;;;;33.13;25.43;;;11.00;99.90;;;;;;5116837;28;20189;-44
2022/04/15 09:44:31;;;;;;;35.60;26.43;;;11.10;99.90;;;;;;5117193;28;20169;-45
2022/04/15 09:46:57;;;;;;;36.23;27.60;;;11.20;99.90;;;;;;5098369;28;20220;-44
2022/04/15 09:49:25;;;;;;;38.53;27.90;;;11.20;99.90;;;;;;5117033;28;20182;-44
2022/04/15 09:51:53;;;;;;;34.07;26.33;;;11.30;99.90;;;;;;5116852;28;20185;-42
2022/04/15 09:54:22;;;;;;;33.73;27.47;;;11.40;99.90;;;;;;5116548;28;20225;-43
2022/04/15 09:56:49;;;;;;;33.77;27.13;;;11.50;99.90;;;;;;5116772;28;20236;-43
2022/04/15 09:59:15;;;;;;;35.27;28.37;;;11.70;99.90;;;;;;5116388;28;20182;-45
2022/04/15 10:01:45;;;;;;;36.53;28.07;;;11.90;99.90;;;;;;5116517;28;20602;-44
2022/04/15 10:04:13;;;;;;;32.90;24.30;;;11.90;99.90;;;;;;5098342;28;20181;-44
2022/04/15 10:06:42;;;;;;;32.37;23.10;;;12.00;99.90;;;;;;5116094;28;20216;-43
2022/04/15 10:09:14;;;;;;;29.23;22.50;;;11.90;99.90;;;;;;5116233;28;20174;-43
2022/04/15 10:11:45;;;;;;;25.13;20.13;;;12.10;99.90;;;;;;5116802;28;20178;-43
2022/04/15 10:14:12;;;;;;;18.30;15.83;;;12.20;99.90;;;;;;5113392;28;20189;-44
2022/04/15 10:16:39;;;;;;;24.97;19.90;;;12.30;99.90;;;;;;5103806;28;20324;-44
2022/04/15 10:19:06;;;;;;;22.30;17.37;;;12.40;99.90;;;;;;5101777;28;20186;-43
2022/04/15 10:21:35;;;;;;;16.23;12.87;;;12.40;99.90;;;;;;5094253;28;20759;-46
2022/04/15 10:24:02;;;;;;;9.50;8.50;;;12.50;99.90;;;;;;5095696;28;20188;-44
2022/04/15 10:26:52;;;;;;;11.23;8.03;;;12.60;99.90;;;;;;5096802;28;20220;-43
2022/04/15 10:29:18;;;;;;;9.70;7.10;;;12.50;99.90;;;;;;5095413;28;20620;-43
2022/04/15 10:31:45;;;;;;;8.23;7.07;;;12.40;99.90;;;;;;5095309;28;20183;-45
2022/04/15 10:34:14;;;;;;;8.33;6.50;;;12.50;99.90;;;;;;5095268;28;20637;-43
2022/04/15 10:36:44;;;;;;;8.00;6.63;;;12.40;99.90;;;;;;5076961;28;20247;-45
2022/04/15 10:39:11;;;;;;;8.47;6.27;;;12.50;99.90;;;;;;5095307;28;20175;-42
2022/04/15 10:42:01;;;;;;;8.13;6.60;;;12.60;99.90;;;;;;5095111;28;20637;-44
2022/04/15 10:44:36;;;;;;;8.77;6.23;;;12.70;99.90;;;;;;5085736;28;20286;-45
2022/04/15 10:47:13;;;;;;;8.20;6.33;;;12.80;99.90;;;;;;5095206;28;20224;-44
2022/04/15 10:50:04;;;;;;;7.77;6.23;;;13.00;99.90;;;;;;5095619;28;20564;-44
2022/04/15 10:52:34;;;;;;;6.63;5.83;;;13.00;99.90;;;;;;5095170;28;20182;-44
2022/04/15 10:55:04;;;;;;;8.57;6.60;;;13.10;99.90;;;;;;5094750;28;20186;-45
2022/04/15 10:57:33;;;;;;;12.57;6.00;;;12.90;99.90;;;;;;5076695;28;20279;-45
2022/04/15 11:02:51;;;;;;;7.27;6.03;;;13.00;99.90;;;;;;5095203;28;20174;-45
2022/04/15 11:05:51;;;;;;;9.20;5.87;;;13.00;99.90;;;;;;5094991;28;20175;-46
2022/04/15 11:08:20;;;;;;;8.53;5.53;;;13.00;99.90;;;;;;5094953;28;20530;-43
2022/04/15 11:11:01;;;;;;;8.13;5.70;;;13.20;99.90;;;;;;5094986;28;20540;-44
2022/04/15 11:13:40;;;;;;;7.23;5.77;;;13.40;99.90;;;;;;5095423;28;20167;-45
2022/04/15 11:16:12;;;;;;;6.73;5.33;;;13.30;99.90;;;;;;5094617;28;20225;-45
2022/04/15 11:18:53;;;;;;;6.27;4.97;;;13.50;99.90;;;;;;5076617;28;20223;-46
2022/04/15 11:21:24;;;;;;;8.30;4.70;;;13.70;99.90;;;;;;5094734;28;20195;-46
2022/04/15 11:23:56;;;;;;;6.30;4.50;;;13.70;99.90;;;;;;5094651;28;20670;-43
2022/04/15 11:26:22;;;;;;;5.80;4.73;;;13.90;99.90;;;;;;5094239;28;20207;-44
2022/04/15 11:28:52;;;;;;;6.77;5.07;;;13.90;99.90;;;;;;5094625;28;20219;-44
2022/04/15 11:31:34;;;;;;;6.50;5.60;;;13.90;99.90;;;;;;5094720;28;20308;-45
2022/04/15 11:34:04;;;;;;;6.07;5.10;;;13.80;99.90;;;;;;5093441;28;20617;-48
2022/04/15 11:39:02;;;;;;;8.53;4.90;;;13.90;99.90;;;;;;5111537;28;20210;-46
2022/04/15 11:41:27;;;;;;;5.63;5.10;;;14.00;99.90;;;;;;5114143;28;20185;-45
2022/04/15 11:44:20;;;;;;;7.27;4.73;;;14.00;99.90;;;;;;5114207;28;20170;-45
2022/04/15 11:46:51;;;;;;;4.90;4.50;;;14.10;99.90;;;;;;5110897;28;20244;-47
2022/04/15 11:49:21;;;;;;;7.13;5.60;;;14.20;99.90;;;;;;5114133;28;20659;-47
2022/04/15 11:51:55;;;;;;;6.17;5.20;;;14.20;99.90;;;;;;5114419;28;20169;-45
2022/04/15 11:54:29;;;;;;;6.13;5.20;;;14.20;99.90;;;;;;5101609;28;20179;-47
2022/04/15 11:56:57;;;;;;;5.40;4.87;;;14.00;99.90;;;;;;5096633;28;20297;-47
2022/04/15 11:59:24;;;;;;;4.80;4.37;;;13.90;99.90;;;;;;5093511;28;20664;-45
2022/04/15 12:01:50;;;;;;;5.53;4.40;;;14.10;99.90;;;;;;5082226;28;20190;-48
2022/04/15 12:04:19;;;;;;;6.03;3.63;;;14.10;99.90;;;;;;5109182;28;20190;-40
2022/04/15 12:06:44;;;;;;;4.77;3.70;;;14.10;99.90;;;;;;5095882;28;20252;-44
2022/04/15 12:09:14;;;;;;;5.17;3.57;;;14.00;99.90;;;;;;5106576;28;20658;-42
2022/04/15 12:11:41;;;;;;;5.00;3.50;;;14.00;99.90;;;;;;5100641;28;20265;-40
2022/04/15 12:14:07;;;;;;;4.90;3.80;;;14.20;99.90;;;;;;5097995;28;20591;-40
2022/04/15 12:16:35;;;;;;;4.77;3.60;;;14.30;99.90;;;;;;5103130;28;20584;-40
2022/04/15 12:19:04;;;;;;;5.87;4.30;;;14.50;99.90;;;;;;5103667;28;20186;-44
2022/04/15 12:21:31;;;;;;;4.87;3.70;;;14.70;99.90;;;;;;5103514;28;20189;-49
2022/04/15 12:24:03;;;;;;;3.97;3.57;;;14.70;99.90;;;;;;5113966;28;20651;-44
2022/04/15 12:26:39;;;;;;;4.00;3.70;;;14.60;99.90;;;;;;5102838;28;20210;-47
2022/04/15 12:31:48;;;;;;;5.07;3.70;;;14.70;99.90;;;;;;5098433;28;20735;-45
2022/04/15 12:34:14;;;;;;;4.10;3.70;;;14.60;99.90;;;;;;5093206;28;20254;-44
2022/04/15 12:36:43;;;;;;;5.03;2.93;;;14.60;99.90;;;;;;5103847;28;20260;-43
2022/04/15 12:39:09;;;;;;;3.90;3.37;;;14.50;99.90;;;;;;5102180;28;20202;-47
2022/04/15 12:41:48;;;;;;;6.13;3.67;;;14.60;99.90;;;;;;5098381;28;20213;-46
2022/04/15 12:44:27;;;;;;;4.47;3.57;;;14.70;99.90;;;;;;5098539;28;20201;-45
2022/04/15 12:47:02;;;;;;;5.77;3.77;;;14.70;99.90;;;;;;5097076;28;20727;-46
2022/04/15 12:49:35;;;;;;;6.07;3.53;;;14.50;99.90;;;;;;5114239;28;20197;-45
2022/04/15 12:52:17;;;;;;;4.33;3.87;;;14.60;99.90;;;;;;5104974;28;20215;-47
2022/04/15 12:55:05;;;;;;;4.60;3.40;;;14.60;99.90;;;;;;5097198;28;20191;-43